Time;durP1;ratioP1;P1;durP2;ratioP2;P2;SDS_P1;SDS_P2;PMS_P1;PMS_P2;Temp;Humidity;BMP_temperature;BMP_pressure;BME280_temperature;BME280_humidity;BME280_pressure;Samples;Min_cycle;Max_cycle;Signal;HPM_P1;HPM_P2
2022/04/03 00:00:37;;;;;;;5.03;3.37;;;-1.10;99.90;;;;;;5089857;28;20193;-78
2022/04/03 00:03:05;;;;;;;6.30;2.93;;;-1.10;99.90;;;;;;5090024;28;20632;-77
2022/04/03 00:05:35;;;;;;;6.17;3.43;;;-1.10;99.90;;;;;;5087918;28;20257;-78
2022/04/03 00:08:02;;;;;;;4.67;2.80;;;-1.30;99.90;;;;;;5090006;28;20614;-78
2022/04/03 00:10:29;;;;;;;6.43;3.97;;;-1.30;99.90;;;;;;5093170;28;20263;-78
2022/04/03 00:12:56;;;;;;;5.63;3.33;;;-1.20;1.00;;;;;;5093773;28;20254;-78
2022/04/03 00:15:24;;;;;;;6.10;3.37;;;-1.30;1.00;;;;;;5093755;28;20267;-77
2022/04/03 00:17:52;;;;;;;6.37;2.80;;;-1.30;99.90;;;;;;5093288;28;20198;-78
2022/04/03 00:20:19;;;;;;;6.83;3.53;;;-1.20;99.90;;;;;;5093226;28;20258;-78
2022/04/03 00:22:48;;;;;;;5.93;2.97;;;-1.10;99.90;;;;;;5093296;28;20206;-77
2022/04/03 00:25:15;;;;;;;6.53;3.30;;;-1.20;99.90;;;;;;5093511;28;20221;-77
2022/04/03 00:27:42;;;;;;;7.30;3.67;;;-1.20;99.90;;;;;;5092179;28;20197;-77
2022/04/03 00:30:10;;;;;;;4.17;2.97;;;-1.30;99.90;;;;;;5093186;28;20267;-77
2022/04/03 00:32:40;;;;;;;7.23;3.87;;;-1.30;1.00;;;;;;5092975;28;20542;-77
2022/04/03 00:35:08;;;;;;;6.70;3.37;;;-1.30;1.00;;;;;;5093006;28;20721;-77
2022/04/03 00:37:35;;;;;;;6.80;3.07;;;-1.40;1.00;;;;;;5091658;28;20202;-77
2022/04/03 00:40:02;;;;;;;8.43;3.10;;;-1.50;1.00;;;;;;5092952;28;20251;-77
2022/04/03 00:42:29;;;;;;;6.17;3.40;;;-1.60;1.00;;;;;;5092813;28;20202;-77
2022/04/03 00:44:56;;;;;;;5.43;3.30;;;-1.50;1.00;;;;;;5093261;28;20565;-68
2022/04/03 00:47:23;;;;;;;7.07;3.30;;;-1.50;1.00;;;;;;5092089;28;20198;-68
2022/04/03 00:49:52;;;;;;;5.90;3.20;;;-1.40;1.00;;;;;;5092620;28;20201;-68
2022/04/03 00:52:20;;;;;;;6.40;3.20;;;-1.40;1.00;;;;;;5092913;28;20255;-68
2022/04/03 00:54:47;;;;;;;6.27;3.47;;;-1.50;1.00;;;;;;5092594;28;20208;-68
2022/04/03 00:57:16;;;;;;;6.60;3.27;;;-1.60;1.00;;;;;;5090771;28;20582;-68
2022/04/03 00:59:44;;;;;;;7.13;3.40;;;-1.70;1.00;;;;;;5088495;28;20214;-68
2022/04/03 01:02:12;;;;;;;8.80;3.30;;;-1.70;1.00;;;;;;5092702;28;20205;-68
2022/04/03 01:04:39;;;;;;;6.27;3.00;;;-1.80;1.00;;;;;;5092147;28;20687;-68
2022/04/03 01:07:08;;;;;;;5.27;3.20;;;-1.70;1.00;;;;;;5092599;28;20259;-68
2022/04/03 01:09:36;;;;;;;6.97;3.10;;;-1.70;1.00;;;;;;5090442;28;20261;-68
2022/04/03 01:12:05;;;;;;;5.03;3.23;;;-1.70;1.00;;;;;;5092311;28;20209;-68
2022/04/03 01:14:33;;;;;;;5.37;3.13;;;-1.80;1.00;;;;;;5092488;28;20209;-68
2022/04/03 01:17:00;;;;;;;6.17;3.23;;;-1.80;1.00;;;;;;5092666;28;20549;-68
2022/04/03 01:19:27;;;;;;;5.67;3.10;;;-1.70;1.00;;;;;;5091732;28;20201;-68
2022/04/03 01:21:54;;;;;;;5.77;2.87;;;-1.80;1.00;;;;;;5092224;28;20661;-68
2022/04/03 01:24:24;;;;;;;7.90;3.53;;;-1.90;1.00;;;;;;5087239;28;20241;-68
2022/04/03 01:26:53;;;;;;;7.47;3.70;;;-1.90;1.00;;;;;;5091329;28;20290;-68
2022/04/03 01:29:21;;;;;;;4.90;2.90;;;-1.80;1.00;;;;;;5092365;28;20205;-68
2022/04/03 01:31:48;;;;;;;9.23;3.47;;;-1.70;1.00;;;;;;5092433;28;20342;-68
2022/04/03 01:34:16;;;;;;;6.50;3.47;;;-1.70;1.00;;;;;;5091848;28;20547;-68
2022/04/03 01:36:43;;;;;;;5.83;2.80;;;-1.70;13.00;;;;;;5085483;28;20729;-68
2022/04/03 01:39:11;;;;;;;6.87;2.70;;;-1.70;99.90;;;;;;5091087;28;20262;-68
2022/04/03 01:41:38;;;;;;;6.50;3.70;;;-1.70;99.90;;;;;;5090589;28;20194;-68
2022/04/03 01:44:08;;;;;;;4.60;3.17;;;-1.70;99.90;;;;;;5091873;28;20640;-68
2022/04/03 01:46:35;;;;;;;5.57;3.13;;;-1.70;99.90;;;;;;5091884;28;20221;-71
2022/04/03 01:49:01;;;;;;;3.63;2.60;;;-1.60;99.90;;;;;;5092756;28;20201;-70
2022/04/03 01:51:28;;;;;;;5.67;3.13;;;-1.80;1.00;;;;;;5092372;28;20202;-71
2022/04/03 01:53:55;;;;;;;6.37;2.70;;;-1.80;99.90;;;;;;5092652;28;20206;-71
2022/04/03 01:56:22;;;;;;;5.37;2.90;;;-1.80;99.90;;;;;;5092481;28;20202;-71
2022/04/03 01:58:49;;;;;;;5.07;2.73;;;-1.70;1.00;;;;;;5091840;28;20281;-72
2022/04/03 02:01:17;;;;;;;6.13;2.67;;;-1.70;1.00;;;;;;5092666;28;20205;-71
2022/04/03 02:03:46;;;;;;;5.70;3.10;;;-1.70;1.00;;;;;;5092699;28;20563;-71
2022/04/03 02:06:13;;;;;;;5.33;2.97;;;-1.70;1.00;;;;;;5092262;28;20217;-71
2022/04/03 02:08:40;;;;;;;4.77;2.67;;;-1.70;1.00;;;;;;5091710;28;20247;-71
2022/04/03 02:11:07;;;;;;;5.37;2.70;;;-1.70;1.00;;;;;;5092436;28;20204;-71
2022/04/03 02:13:34;;;;;;;4.43;2.90;;;-1.70;1.00;;;;;;5092662;28;20222;-71
2022/04/03 02:16:01;;;;;;;4.23;2.93;;;-1.60;1.00;;;;;;5092086;28;20531;-71
2022/04/03 02:18:29;;;;;;;6.00;2.87;;;-1.60;1.00;;;;;;5091298;28;20208;-71
2022/04/03 02:20:56;;;;;;;5.17;3.10;;;-1.60;1.00;;;;;;5092407;28;20201;-70
2022/04/03 02:23:23;;;;;;;6.80;2.97;;;-1.60;1.00;;;;;;5091719;28;20677;-71
2022/04/03 02:25:52;;;;;;;7.03;3.27;;;-1.70;1.00;;;;;;5092147;28;20221;-71
2022/04/03 02:28:19;;;;;;;4.20;2.70;;;-1.70;1.00;;;;;;5091481;28;20227;-71
2022/04/03 02:30:45;;;;;;;5.23;2.70;;;-1.80;1.00;;;;;;5091674;28;20210;-71
2022/04/03 02:33:12;;;;;;;4.20;2.70;;;-1.80;1.00;;;;;;5091346;28;20200;-72
2022/04/03 02:35:41;;;;;;;6.97;3.23;;;-1.80;1.00;;;;;;5092700;28;20198;-71
2022/04/03 02:38:08;;;;;;;6.10;2.87;;;-1.70;1.00;;;;;;5091603;28;20202;-72
2022/04/03 02:40:35;;;;;;;6.73;3.10;;;-1.80;1.00;;;;;;5090817;28;20208;-71
2022/04/03 02:43:02;;;;;;;4.53;2.77;;;-1.80;1.00;;;;;;5092038;28;20656;-71
2022/04/03 02:45:29;;;;;;;5.40;2.97;;;-2.00;1.00;;;;;;5091955;28;20636;-71
2022/04/03 02:47:57;;;;;;;5.90;2.80;;;-2.00;88.70;;;;;;5091520;28;20208;-72
2022/04/03 02:50:26;;;;;;;4.77;2.90;;;-2.10;99.90;;;;;;5091400;28;20292;-71
2022/04/03 02:52:55;;;;;;;3.57;2.63;;;-2.20;99.90;;;;;;5090865;28;20559;-71
2022/04/03 02:55:24;;;;;;;3.97;2.60;;;-2.10;99.90;;;;;;5091836;28;20194;-72
2022/04/03 02:57:52;;;;;;;4.20;2.57;;;-2.10;99.90;;;;;;5091807;28;20202;-72
2022/04/03 03:00:19;;;;;;;4.40;2.80;;;-2.20;99.90;;;;;;5091655;28;20656;-71
2022/04/03 03:02:48;;;;;;;4.77;2.50;;;-2.10;99.90;;;;;;5091986;28;20211;-72
2022/04/03 03:05:16;;;;;;;6.20;2.83;;;-2.30;99.90;;;;;;5092210;28;20213;-71
2022/04/03 03:07:46;;;;;;;5.50;2.73;;;-2.20;1.00;;;;;;5075270;28;20568;-72
2022/04/03 03:10:16;;;;;;;4.17;2.73;;;-2.10;1.00;;;;;;5082164;28;20431;-71
2022/04/03 03:12:44;;;;;;;4.60;2.50;;;-2.10;1.00;;;;;;5090624;28;20201;-71
2022/04/03 03:15:12;;;;;;;6.43;3.10;;;-2.10;1.00;;;;;;5091393;28;20201;-71
2022/04/03 03:17:39;;;;;;;3.73;2.60;;;-2.10;1.00;;;;;;5091825;28;20202;-71
2022/04/03 03:20:06;;;;;;;5.10;2.90;;;-2.20;1.00;;;;;;5092101;28;20201;-71
2022/04/03 03:22:33;;;;;;;8.73;2.80;;;-2.20;1.00;;;;;;5091299;28;20208;-71
2022/04/03 03:25:00;;;;;;;5.07;3.00;;;-2.30;1.00;;;;;;5090816;28;20666;-71
2022/04/03 03:27:28;;;;;;;6.57;2.50;;;-2.40;1.00;;;;;;5091287;28;20204;-71
2022/04/03 03:29:56;;;;;;;4.43;2.77;;;-2.30;94.90;;;;;;5091327;28;20220;-71
2022/04/03 03:32:23;;;;;;;4.10;2.23;;;-2.30;99.90;;;;;;5090915;28;20204;-71
2022/04/03 03:34:51;;;;;;;7.27;3.00;;;-2.30;99.90;;;;;;5092128;28;20205;-71
2022/04/03 03:37:17;;;;;;;4.13;2.70;;;-2.40;1.00;;;;;;5091377;28;20547;-71
2022/04/03 03:39:44;;;;;;;6.07;2.40;;;-2.30;75.70;;;;;;5090269;28;20215;-71
2022/04/03 03:42:11;;;;;;;3.10;2.23;;;-2.20;1.00;;;;;;5090742;28;20200;-71
2022/04/03 03:44:40;;;;;;;5.67;2.63;;;-2.20;1.00;;;;;;5094045;28;20212;-71
2022/04/03 03:47:08;;;;;;;4.23;2.70;;;-2.30;1.00;;;;;;5082808;28;20221;-71
2022/04/03 03:49:34;;;;;;;6.63;2.97;;;-2.50;1.00;;;;;;5077284;28;20599;-72
2022/04/03 03:52:01;;;;;;;3.57;2.70;;;-2.60;1.00;;;;;;5095020;28;20199;-71
2022/04/03 03:54:28;;;;;;;6.30;2.60;;;-2.60;99.90;;;;;;5094349;28;20208;-72
2022/04/03 03:56:55;;;;;;;4.40;2.50;;;-2.50;99.90;;;;;;5094750;28;20227;-71
2022/04/03 03:59:22;;;;;;;5.60;2.30;;;-2.40;99.90;;;;;;5095042;28;20198;-71
2022/04/03 04:01:50;;;;;;;5.53;3.13;;;-2.40;99.90;;;;;;5095452;28;20644;-71
2022/04/03 04:04:17;;;;;;;5.43;3.10;;;-2.30;99.90;;;;;;5095356;28;20640;-71
2022/04/03 04:06:45;;;;;;;4.63;2.43;;;-2.30;1.00;;;;;;5095521;28;20257;-71
2022/04/03 04:09:12;;;;;;;5.83;3.10;;;-2.20;1.00;;;;;;5094576;28;20236;-71
2022/04/03 04:11:39;;;;;;;5.50;2.93;;;-2.20;1.00;;;;;;5094516;28;20202;-71
2022/04/03 04:14:06;;;;;;;5.40;3.10;;;-2.20;1.00;;;;;;5094768;28;20740;-71
2022/04/03 04:16:33;;;;;;;5.43;2.60;;;-2.20;1.00;;;;;;5094267;28;20201;-71
2022/04/03 04:19:01;;;;;;;5.00;2.83;;;-2.20;1.00;;;;;;5094615;28;20190;-72
2022/04/03 04:21:28;;;;;;;5.80;2.97;;;-2.10;1.00;;;;;;5093764;28;20206;-72
2022/04/03 04:23:55;;;;;;;5.10;2.60;;;-2.10;1.00;;;;;;5095048;28;20205;-71
2022/04/03 04:26:22;;;;;;;4.50;2.57;;;-2.20;1.00;;;;;;5095282;28;20218;-71
2022/04/03 04:28:50;;;;;;;5.10;2.80;;;-2.10;1.00;;;;;;5094070;28;20208;-71
2022/04/03 04:31:17;;;;;;;6.17;3.20;;;-2.10;1.00;;;;;;5095386;28;20257;-72
2022/04/03 04:33:44;;;;;;;6.03;3.33;;;-2.00;1.00;;;;;;5094553;28;20547;-71
2022/04/03 04:36:12;;;;;;;6.60;2.60;;;-2.10;90.30;;;;;;5094331;28;20200;-71
2022/04/03 04:38:39;;;;;;;6.30;3.03;;;-2.00;30.60;;;;;;5093609;28;20194;-71
2022/04/03 04:41:06;;;;;;;5.63;2.77;;;-2.00;21.70;;;;;;5093885;28;20558;-71
2022/04/03 04:43:33;;;;;;;5.33;2.60;;;-2.00;54.40;;;;;;5093806;28;20221;-71
2022/04/03 04:45:59;;;;;;;5.13;3.17;;;-1.90;1.00;;;;;;5093729;28;20214;-71
2022/04/03 04:48:27;;;;;;;6.47;2.97;;;-1.90;1.00;;;;;;5094043;28;20202;-71
2022/04/03 04:50:54;;;;;;;5.60;2.77;;;-1.90;1.00;;;;;;5095346;28;20208;-71
2022/04/03 04:53:22;;;;;;;5.97;3.03;;;-1.90;81.40;;;;;;5093515;28;20568;-71
2022/04/03 04:55:49;;;;;;;4.43;3.00;;;-1.80;99.90;;;;;;5093297;28;20221;-71
2022/04/03 04:58:16;;;;;;;7.03;3.10;;;-1.80;1.00;;;;;;5093419;28;20201;-71
2022/04/03 05:00:43;;;;;;;6.57;3.00;;;-1.70;1.00;;;;;;5094703;28;20257;-71
2022/04/03 05:03:10;;;;;;;6.50;2.80;;;-1.70;1.00;;;;;;5095036;28;20202;-71
2022/04/03 05:05:37;;;;;;;4.60;2.73;;;-1.70;1.00;;;;;;5094272;28;20204;-72
2022/04/03 05:08:05;;;;;;;6.23;2.80;;;-1.60;1.00;;;;;;5092992;28;20554;-71
2022/04/03 05:10:33;;;;;;;4.87;2.63;;;-1.60;1.00;;;;;;5094170;28;20197;-72
2022/04/03 05:13:02;;;;;;;5.70;3.00;;;-1.50;1.00;;;;;;5093064;28;20198;-71
2022/04/03 05:15:30;;;;;;;11.83;3.67;;;-1.50;1.00;;;;;;5093442;28;20209;-72
2022/04/03 05:17:58;;;;;;;6.07;2.97;;;-1.40;99.90;;;;;;5093584;28;20198;-71
2022/04/03 05:20:25;;;;;;;5.43;2.50;;;-1.50;99.90;;;;;;5094267;28;20198;-71
2022/04/03 05:22:52;;;;;;;9.20;3.23;;;-1.50;99.90;;;;;;5093468;28;20583;-72
2022/04/03 05:25:19;;;;;;;7.27;3.20;;;-1.40;1.00;;;;;;5094379;28;20564;-71
2022/04/03 05:27:48;;;;;;;5.67;3.00;;;-1.40;1.00;;;;;;5093583;28;20226;-72
2022/04/03 05:30:15;;;;;;;4.57;2.70;;;-1.40;1.00;;;;;;5092580;28;20656;-72
2022/04/03 05:32:43;;;;;;;6.67;3.17;;;-1.40;1.00;;;;;;5093144;28;20206;-72
2022/04/03 05:35:11;;;;;;;6.20;3.33;;;-1.40;1.00;;;;;;5093935;28;20230;-72
2022/04/03 05:37:37;;;;;;;5.90;2.97;;;-1.30;1.00;;;;;;5093147;28;20202;-72
2022/04/03 05:40:06;;;;;;;7.57;3.87;;;-1.20;1.00;;;;;;5093089;28;20212;-72
2022/04/03 05:42:35;;;;;;;8.50;3.37;;;-1.20;1.00;;;;;;5093831;28;20205;-72
2022/04/03 05:45:05;;;;;;;5.07;3.37;;;-1.20;1.00;;;;;;5093920;28;20205;-73
2022/04/03 05:47:32;;;;;;;6.20;3.03;;;-1.20;14.40;;;;;;5093595;28;20229;-72
2022/04/03 05:49:59;;;;;;;9.13;3.47;;;-1.20;99.90;;;;;;5101744;28;20198;-72
2022/04/03 05:52:26;;;;;;;5.53;3.00;;;-0.90;43.70;;;;;;5093021;28;20653;-69
2022/04/03 05:54:53;;;;;;;5.13;3.00;;;-0.60;1.00;;;;;;5091141;28;20198;-69
2022/04/03 05:57:20;;;;;;;7.37;3.07;;;-0.70;1.00;;;;;;5092100;28;20193;-69
2022/04/03 05:59:47;;;;;;;4.40;2.70;;;-0.80;1.00;;;;;;5093148;28;20551;-69
2022/04/03 06:02:15;;;;;;;5.17;2.93;;;-0.80;1.00;;;;;;5092608;28;20202;-69
2022/04/03 06:04:42;;;;;;;4.63;2.80;;;-0.40;1.00;;;;;;5093301;28;20214;-69
2022/04/03 06:07:09;;;;;;;6.83;2.80;;;0.60;34.40;;;;;;5089628;28;20225;-69
2022/04/03 06:09:36;;;;;;;5.00;3.33;;;1.40;99.90;;;;;;5092029;28;20263;-69
2022/04/03 06:12:03;;;;;;;6.23;3.00;;;1.30;1.00;;;;;;5092363;28;20199;-69
2022/04/03 06:14:30;;;;;;;5.37;3.23;;;1.50;99.90;;;;;;5091944;28;20201;-69
2022/04/03 06:16:57;;;;;;;4.93;2.60;;;2.30;1.00;;;;;;5092832;28;20197;-69
2022/04/03 06:19:25;;;;;;;5.93;3.10;;;2.90;1.00;;;;;;5091805;28;20202;-69
2022/04/03 06:21:52;;;;;;;6.67;3.20;;;3.30;1.00;;;;;;5092066;28;20193;-69
2022/04/03 06:24:19;;;;;;;4.87;3.27;;;3.20;1.00;;;;;;5092590;28;21126;-69
2022/04/03 06:26:45;;;;;;;6.17;3.17;;;3.90;99.90;;;;;;5092008;28;20231;-69
2022/04/03 06:29:12;;;;;;;4.80;2.70;;;3.70;99.90;;;;;;5091558;28;20201;-70
2022/04/03 06:31:39;;;;;;;4.03;3.00;;;3.80;99.90;;;;;;5089556;28;20208;-69
2022/04/03 06:34:06;;;;;;;4.10;2.53;;;4.50;99.90;;;;;;5091582;28;20305;-69
2022/04/03 06:36:34;;;;;;;5.63;3.03;;;4.40;1.00;;;;;;5089086;28;20205;-69
2022/04/03 06:39:01;;;;;;;3.27;2.70;;;3.30;99.90;;;;;;5090637;28;20209;-70
2022/04/03 06:41:28;;;;;;;5.50;3.43;;;3.20;99.90;;;;;;5091466;28;20197;-70
2022/04/03 06:43:55;;;;;;;5.23;2.93;;;2.20;1.00;;;;;;5091897;28;20652;-69
2022/04/03 06:46:22;;;;;;;6.53;3.20;;;1.70;1.00;;;;;;5092090;28;20225;-69
2022/04/03 06:48:49;;;;;;;5.30;3.13;;;1.40;1.00;;;;;;5091254;28;20205;-69
2022/04/03 06:51:16;;;;;;;5.80;3.30;;;2.10;1.00;;;;;;5091565;28;20200;-69
2022/04/03 06:53:44;;;;;;;5.63;3.47;;;2.90;1.00;;;;;;5089425;28;20210;-69
2022/04/03 06:56:11;;;;;;;4.23;2.63;;;3.40;99.90;;;;;;5091546;28;20566;-69
2022/04/03 06:58:38;;;;;;;4.20;2.90;;;3.60;99.90;;;;;;5090813;28;20201;-69
2022/04/03 07:01:05;;;;;;;6.90;3.50;;;3.20;99.90;;;;;;5091213;28;20197;-69
2022/04/03 07:03:32;;;;;;;5.50;3.83;;;3.10;99.90;;;;;;5091316;28;20202;-69
2022/04/03 07:05:59;;;;;;;10.87;5.87;;;3.50;99.90;;;;;;5091983;28;20659;-69
2022/04/03 07:08:28;;;;;;;6.33;3.60;;;3.80;99.90;;;;;;5089810;28;20229;-69
2022/04/03 07:10:56;;;;;;;4.37;3.03;;;3.40;99.90;;;;;;5088741;28;20674;-69
2022/04/03 07:13:23;;;;;;;5.80;3.67;;;3.30;99.90;;;;;;5091136;28;20205;-70
2022/04/03 07:15:50;;;;;;;4.40;3.03;;;3.10;99.90;;;;;;5091084;28;20202;-69
2022/04/03 07:18:17;;;;;;;5.50;3.33;;;2.90;1.00;;;;;;5089586;28;20193;-70
2022/04/03 07:20:47;;;;;;;4.63;3.50;;;3.00;1.00;;;;;;5091615;28;20198;-70
2022/04/03 07:23:13;;;;;;;6.03;3.93;;;2.80;1.00;;;;;;5090920;28;20206;-69
2022/04/03 07:25:40;;;;;;;7.17;3.73;;;3.50;1.00;;;;;;5091017;28;20216;-70
2022/04/03 07:28:08;;;;;;;5.30;3.87;;;3.80;1.00;;;;;;5090887;28;20225;-70
2022/04/03 07:30:35;;;;;;;5.50;3.63;;;3.70;99.90;;;;;;5090487;28;20285;-70
2022/04/03 07:33:02;;;;;;;7.03;4.10;;;3.90;1.00;;;;;;5091216;28;20287;-70
2022/04/03 07:35:29;;;;;;;5.60;3.70;;;4.10;99.90;;;;;;5090249;28;20259;-69
2022/04/03 07:37:56;;;;;;;6.40;4.10;;;4.80;99.90;;;;;;5091227;28;20194;-70
2022/04/03 07:40:24;;;;;;;5.97;3.53;;;5.50;99.90;;;;;;5090310;28;20300;-70
2022/04/03 07:42:52;;;;;;;6.33;3.57;;;4.40;99.90;;;;;;5091053;28;20208;-70
2022/04/03 07:45:20;;;;;;;6.13;4.00;;;5.10;99.90;;;;;;5090903;28;20201;-70
2022/04/03 07:47:48;;;;;;;7.57;4.10;;;6.60;87.50;;;;;;5090759;28;20222;-69
2022/04/03 07:50:15;;;;;;;6.10;4.10;;;7.10;1.00;;;;;;5090853;28;20201;-70
2022/04/03 07:52:43;;;;;;;5.87;4.10;;;5.70;1.00;;;;;;5085386;28;20246;-75
2022/04/03 07:55:11;;;;;;;6.87;4.17;;;5.10;99.90;;;;;;5087988;28;20572;-75
2022/04/03 07:57:39;;;;;;;5.97;3.77;;;6.00;99.90;;;;;;5085244;28;20289;-75
2022/04/03 08:00:08;;;;;;;6.33;3.77;;;7.10;1.00;;;;;;5085531;28;20711;-74
2022/04/03 08:02:36;;;;;;;6.00;4.33;;;6.30;1.00;;;;;;5086949;28;20612;-75
2022/04/03 08:05:04;;;;;;;6.90;4.47;;;6.50;1.00;;;;;;5087575;28;20244;-70
2022/04/03 08:07:37;;;;;;;5.30;3.80;;;6.40;4.20;;;;;;5088965;28;20233;-70
2022/04/03 08:10:06;;;;;;;7.10;3.90;;;6.90;15.00;;;;;;5088552;28;20214;-70
2022/04/03 08:12:33;;;;;;;4.67;3.77;;;6.70;7.30;;;;;;5088743;28;20214;-70
2022/04/03 08:15:02;;;;;;;5.57;3.60;;;6.20;38.90;;;;;;5088900;28;20284;-70
2022/04/03 08:17:30;;;;;;;6.50;3.73;;;6.10;76.00;;;;;;5088507;28;20221;-70
2022/04/03 08:19:58;;;;;;;4.43;3.23;;;6.10;1.00;;;;;;5089030;28;20218;-70
2022/04/03 08:22:25;;;;;;;4.87;3.30;;;6.30;1.00;;;;;;5089444;28;20212;-70
2022/04/03 08:24:52;;;;;;;5.27;3.17;;;6.10;1.00;;;;;;5089066;28;20217;-70
2022/04/03 08:27:19;;;;;;;5.33;3.50;;;6.00;1.00;;;;;;5088741;28;20236;-70
2022/04/03 08:29:47;;;;;;;6.03;3.50;;;6.10;1.00;;;;;;5089274;28;20213;-70
2022/04/03 08:32:15;;;;;;;4.33;3.30;;;6.10;1.00;;;;;;5092640;28;20206;-70
2022/04/03 08:34:42;;;;;;;4.30;3.10;;;6.20;1.00;;;;;;5092747;28;20245;-70
2022/04/03 08:37:11;;;;;;;3.00;2.50;;;6.70;1.00;;;;;;5092101;28;20209;-70
2022/04/03 08:39:38;;;;;;;5.33;3.17;;;6.70;1.00;;;;;;5091893;28;20300;-71
2022/04/03 08:42:06;;;;;;;13.70;6.33;;;6.90;1.00;;;;;;5092613;28;20578;-70
2022/04/03 08:44:37;;;;;;;3.60;2.97;;;7.20;1.00;;;;;;5092415;28;20214;-70
2022/04/03 08:47:09;;;;;;;4.23;2.70;;;7.30;1.00;;;;;;5092001;28;20225;-70
2022/04/03 08:49:40;;;;;;;6.83;3.10;;;6.90;1.00;;;;;;5091922;28;20210;-70
2022/04/03 08:52:12;;;;;;;5.37;3.03;;;6.90;1.00;;;;;;5095315;28;20208;-70
2022/04/03 08:54:44;;;;;;;5.40;2.80;;;6.40;1.00;;;;;;5094686;28;20678;-70
2022/04/03 08:57:11;;;;;;;4.90;3.00;;;6.10;1.00;;;;;;5095116;28;20280;-70
2022/04/03 08:59:38;;;;;;;4.67;3.03;;;6.10;1.00;;;;;;5094576;28;20201;-70
2022/04/03 09:02:05;;;;;;;7.57;3.30;;;6.40;1.00;;;;;;5093875;28;20264;-70
2022/04/03 09:04:37;;;;;;;5.70;2.70;;;6.60;1.00;;;;;;5094913;28;20266;-70
2022/04/03 09:07:04;;;;;;;5.10;2.70;;;6.60;1.00;;;;;;5094566;28;20201;-70
2022/04/03 09:09:36;;;;;;;4.87;2.57;;;6.90;1.00;;;;;;5093995;28;20200;-70
2022/04/03 09:12:12;;;;;;;4.83;2.70;;;7.20;1.00;;;;;;5094504;28;20206;-73
2022/04/03 09:14:46;;;;;;;3.27;2.47;;;7.20;1.00;;;;;;5080023;28;20646;-69
2022/04/03 09:17:34;;;;;;;7.60;2.83;;;6.70;1.00;;;;;;5083699;28;20190;-69
2022/04/03 09:20:08;;;;;;;4.27;2.30;;;7.10;1.00;;;;;;5089716;28;20204;-69
2022/04/03 09:22:37;;;;;;;4.20;2.30;;;7.00;1.00;;;;;;5090177;28;20200;-70
2022/04/03 09:25:05;;;;;;;3.70;2.47;;;7.80;1.00;;;;;;5090642;28;20557;-70
2022/04/03 09:27:35;;;;;;;3.60;2.00;;;8.00;1.00;;;;;;5090913;28;20278;-71
2022/04/03 09:30:08;;;;;;;2.70;2.30;;;8.70;1.00;;;;;;5090794;28;20288;-72
2022/04/03 09:32:35;;;;;;;3.77;1.90;;;8.70;1.00;;;;;;5087722;28;20206;-73
2022/04/03 09:35:05;;;;;;;2.87;2.07;;;8.10;1.00;;;;;;5090538;28;20197;-72
2022/04/03 09:37:35;;;;;;;4.27;2.07;;;7.80;1.00;;;;;;5090378;28;20231;-72
2022/04/03 09:40:05;;;;;;;5.23;2.60;;;8.20;1.00;;;;;;5089887;28;20588;-71
2022/04/03 09:42:38;;;;;;;3.73;2.30;;;7.90;1.00;;;;;;5089182;28;20205;-72
2022/04/03 09:45:24;;;;;;;3.03;2.73;;;7.80;1.00;;;;;;5090055;28;20198;-71
2022/04/03 09:47:51;;;;;;;3.70;2.13;;;7.60;1.00;;;;;;5090059;28;20217;-71
2022/04/03 09:50:17;;;;;;;3.63;2.70;;;7.90;1.00;;;;;;5089935;28;20208;-73
2022/04/03 09:52:47;;;;;;;4.10;2.30;;;8.20;1.00;;;;;;5090360;28;20209;-73
2022/04/03 09:55:23;;;;;;;2.43;2.10;;;8.50;1.00;;;;;;5089982;28;20208;-73
2022/04/03 09:58:09;;;;;;;2.00;1.90;;;8.00;1.00;;;;;;5089377;28;20201;-73
2022/04/03 10:00:41;;;;;;;3.43;2.30;;;7.90;1.00;;;;;;5086841;28;20235;-73
2022/04/03 10:03:11;;;;;;;1.60;1.50;;;7.90;1.00;;;;;;5089449;28;20292;-73
2022/04/03 10:05:42;;;;;;;3.20;2.33;;;8.10;1.00;;;;;;5090069;28;20201;-73
2022/04/03 10:08:14;;;;;;;3.07;1.50;;;8.60;1.00;;;;;;5089273;28;20323;-73
2022/04/03 10:10:51;;;;;;;3.13;2.03;;;8.30;1.00;;;;;;5089766;28;20213;-73
2022/04/03 10:13:31;;;;;;;3.63;1.80;;;8.30;1.00;;;;;;5089771;28;20573;-73
2022/04/03 10:16:01;;;;;;;4.40;1.90;;;8.40;1.00;;;;;;5088450;28;20201;-72
2022/04/03 10:18:28;;;;;;;2.73;1.80;;;8.40;1.00;;;;;;5089390;28;20660;-73
2022/04/03 10:20:58;;;;;;;3.20;2.10;;;8.70;1.00;;;;;;5089939;28;20205;-74
2022/04/03 10:23:39;;;;;;;4.43;2.33;;;8.70;1.00;;;;;;5088887;28;20278;-74
2022/04/03 10:26:07;;;;;;;4.23;2.20;;;8.70;1.00;;;;;;5082685;28;20197;-73
2022/04/03 10:28:36;;;;;;;2.80;2.00;;;8.40;1.00;;;;;;5089104;28;20224;-74
2022/04/03 10:31:08;;;;;;;3.93;2.40;;;8.00;1.00;;;;;;5089207;28;20628;-73
2022/04/03 10:33:39;;;;;;;3.90;1.87;;;8.30;1.00;;;;;;5084127;28;20691;-73
2022/04/03 10:36:10;;;;;;;2.97;1.57;;;9.20;1.00;;;;;;5089613;28;20683;-73
2022/04/03 10:38:56;;;;;;;2.17;1.90;;;9.50;1.00;;;;;;5086860;28;20259;-73
2022/04/03 10:41:32;;;;;;;3.70;2.63;;;9.00;1.00;;;;;;5088169;28;20211;-74
2022/04/03 10:44:32;;;;;;;2.57;1.13;;;8.50;1.00;;;;;;5070455;28;20292;-74
2022/04/03 10:47:21;;;;;;;3.73;1.57;;;8.30;1.00;;;;;;5085797;28;20211;-74
2022/04/03 10:50:05;;;;;;;2.60;1.53;;;8.30;1.00;;;;;;5088104;28;20332;-74
2022/04/03 10:53:09;;;;;;;3.73;2.40;;;8.20;1.00;;;;;;5088956;28;20205;-73
2022/04/03 10:55:38;;;;;;;2.23;2.03;;;8.40;1.00;;;;;;5088752;28;20215;-74
2022/04/03 10:58:16;;;;;;;4.57;2.23;;;8.70;1.00;;;;;;5082303;28;20201;-73
2022/04/03 11:00:45;;;;;;;4.83;2.10;;;8.90;1.00;;;;;;5088529;28;20209;-73
2022/04/03 11:06:39;;;;;;;3.63;1.93;;;9.70;1.00;;;;;;5084933;28;20618;-69
2022/04/03 11:09:13;;;;;;;2.83;1.63;;;8.50;1.00;;;;;;5084856;28;20221;-71
2022/04/03 11:11:58;;;;;;;4.30;1.87;;;7.80;1.00;;;;;;5088488;28;20209;-70
2022/04/03 11:14:56;;;;;;;3.63;1.93;;;7.60;1.00;;;;;;5088826;28;20205;-70
2022/04/03 11:17:52;;;;;;;5.10;2.07;;;7.20;1.00;;;;;;5085635;28;20569;-69
2022/04/03 11:20:51;;;;;;;6.40;2.87;;;6.80;94.40;;;;;;5086963;28;20205;-69
2022/04/03 11:23:21;;;;;;;8.90;2.83;;;7.00;99.90;;;;;;5072308;28;20202;-70
2022/04/03 11:25:53;;;;;;;4.43;2.50;;;7.10;99.90;;;;;;5088264;28;20217;-70
2022/04/03 11:28:21;;;;;;;5.50;2.70;;;7.10;99.90;;;;;;5088555;28;20221;-70
2022/04/03 11:30:56;;;;;;;7.40;2.93;;;7.10;99.90;;;;;;5088683;28;20263;-70
2022/04/03 11:33:35;;;;;;;4.17;2.30;;;7.30;5.20;;;;;;5086315;28;20588;-71
2022/04/03 11:36:06;;;;;;;2.37;1.97;;;7.30;1.00;;;;;;5087460;28;20206;-71
2022/04/03 11:38:41;;;;;;;3.67;2.20;;;7.20;90.80;;;;;;5087577;28;20292;-71
2022/04/03 11:41:21;;;;;;;3.03;2.30;;;7.10;99.90;;;;;;5087979;28;20259;-71
2022/04/03 11:43:58;;;;;;;2.53;2.00;;;7.30;99.90;;;;;;5088620;28;20763;-71
2022/04/03 11:46:25;;;;;;;4.80;2.10;;;7.10;99.90;;;;;;5087702;28;20205;-70
2022/04/03 11:49:12;;;;;;;3.00;2.57;;;7.30;99.90;;;;;;5087809;28;20679;-71
2022/04/03 11:51:48;;;;;;;3.53;2.07;;;7.60;99.90;;;;;;5086803;28;20603;-70
2022/04/03 11:54:25;;;;;;;4.93;2.10;;;7.90;55.90;;;;;;5084309;28;20216;-71
2022/04/03 11:56:58;;;;;;;2.87;1.83;;;8.00;1.00;;;;;;5088616;28;20197;-70
2022/04/03 11:59:30;;;;;;;4.17;2.23;;;8.10;1.00;;;;;;5086165;28;20202;-71
2022/04/03 12:02:20;;;;;;;4.07;2.20;;;7.90;1.00;;;;;;5086948;28;20198;-70
2022/04/03 12:04:48;;;;;;;4.37;2.10;;;8.00;1.00;;;;;;5084692;28;20206;-69
2022/04/03 12:07:20;;;;;;;4.03;2.37;;;8.10;1.00;;;;;;5092402;28;20210;-69
2022/04/03 12:09:49;;;;;;;1.97;1.77;;;8.40;1.00;;;;;;5091228;28;20221;-70
2022/04/03 12:12:29;;;;;;;3.00;1.73;;;8.70;1.00;;;;;;5088768;28;20710;-69
2022/04/03 12:14:58;;;;;;;1.50;1.40;;;8.30;1.00;;;;;;5088887;28;20203;-69
2022/04/03 12:17:27;;;;;;;2.17;1.60;;;8.20;1.00;;;;;;5092277;28;20292;-69
2022/04/03 12:19:56;;;;;;;3.60;1.80;;;8.20;1.00;;;;;;5092058;28;20201;-70
2022/04/03 12:22:25;;;;;;;1.60;1.50;;;8.20;1.00;;;;;;5092043;28;20673;-69
2022/04/03 12:24:56;;;;;;;2.37;1.40;;;8.60;1.00;;;;;;5091365;28;20212;-70
2022/04/03 12:27:33;;;;;;;2.93;1.60;;;8.50;1.00;;;;;;5093531;28;20243;-69
2022/04/03 12:30:00;;;;;;;4.50;1.70;;;8.40;1.00;;;;;;5092880;28;20232;-69
2022/04/03 12:32:35;;;;;;;5.03;1.97;;;8.30;1.00;;;;;;5093320;28;20205;-69
2022/04/03 12:35:11;;;;;;;2.03;1.60;;;8.20;1.00;;;;;;5093385;28;20198;-69
2022/04/03 12:37:41;;;;;;;5.07;2.87;;;8.10;1.00;;;;;;5092895;28;20201;-69
2022/04/03 12:40:17;;;;;;;4.90;2.23;;;8.10;1.00;;;;;;5092574;28;20209;-69
2022/04/03 12:42:50;;;;;;;4.00;2.57;;;8.40;1.00;;;;;;5094466;28;20202;-69
2022/04/03 12:45:19;;;;;;;6.33;3.13;;;8.30;1.00;;;;;;5094226;28;20206;-69
2022/04/03 12:47:58;;;;;;;5.93;2.53;;;8.40;1.00;;;;;;5093878;28;20213;-69
2022/04/03 12:50:34;;;;;;;2.50;1.77;;;8.40;1.00;;;;;;5093368;28;20201;-69
2022/04/03 12:53:25;;;;;;;4.57;2.00;;;8.40;1.00;;;;;;5094048;28;20581;-68
2022/04/03 12:55:53;;;;;;;3.33;2.17;;;8.30;1.00;;;;;;5093315;28;20259;-69
2022/04/03 12:58:33;;;;;;;2.90;2.00;;;8.30;1.00;;;;;;5092842;28;20215;-69
2022/04/03 13:01:09;;;;;;;2.50;1.90;;;8.00;1.00;;;;;;5090794;28;20664;-69
2022/04/03 13:03:43;;;;;;;5.30;2.93;;;7.90;1.00;;;;;;5093550;28;20680;-69
2022/04/03 13:06:14;;;;;;;4.07;2.60;;;7.70;1.00;;;;;;5092616;28;20198;-68
2022/04/03 13:09:02;;;;;;;4.37;2.40;;;7.50;1.00;;;;;;5087981;28;20225;-73
2022/04/03 13:11:40;;;;;;;5.07;2.90;;;6.80;99.90;;;;;;5087976;28;20198;-69
2022/04/03 13:14:18;;;;;;;3.73;2.40;;;6.50;1.00;;;;;;5070505;28;20205;-68
2022/04/03 13:16:49;;;;;;;5.33;2.83;;;5.80;97.20;;;;;;5089140;28;20212;-69